Dream Angel — 3EEV — position and weather

sailwx.info

Track history (hours):
 
Tides and Currents Weather Stations Pressure Air Temp Water Temp Dewpoint Dewpoint Depression Visibility Wind Speed Wind Dir Waves Ship Positions

Dream Angel

Last reported at 2015-Jan-28 14:33 UTC. Time now 2015-Feb-01 05:43 UTC.
Position N 34°47' E 139°34'.

Length 187 m; draft 7.8 m.

Type: Ship. MMSI: 371820000.

Date/timePositionNaut miles runAvg speedWind from/ knotsBaromVisibWave heightAir tempDewpointWater temp
2015-Jan-28 14:33N 34°47' E 139°34'1717.1
2015-Jan-28 13:34N 35°02' E 139°42'1313.2
2015-Jan-28 12:33N 35°15' E 139°46'1110.8
2015-Jan-28 11:34N 35°25' E 139°41'0 0.4
2015-Jan-28 10:33N 35°25' E 139°41'0 0.0
2015-Jan-28 09:33N 35°25' E 139°41'0 0.0
2015-Jan-28 08:33N 35°25' E 139°41'0 0.0
2015-Jan-28 07:33N 35°25' E 139°41'0 0.0
2015-Jan-28 06:33N 35°25' E 139°41'0 0.0
2015-Jan-28 05:33N 35°25' E 139°41'0 0.0
2015-Jan-28 04:33N 35°25' E 139°41'0 0.0
2015-Jan-28 03:33N 35°25' E 139°41'0 0.0
2015-Jan-28 02:33N 35°25' E 139°41'0 0.0
2015-Jan-28 01:33N 35°25' E 139°41'0 0.0
2015-Jan-28 00:33N 35°25' E 139°41'0 0.0
2015-Jan-27 23:33N 35°25' E 139°41'3 3.3
2015-Jan-27 22:33N 35°22' E 139°42'4 4.1
2015-Jan-27 21:33N 35°19' E 139°39'0 0.0
2015-Jan-27 20:30N 35°19' E 139°39'0 0.0
2015-Jan-27 19:33N 35°19' E 139°39'0 0.0
2015-Jan-27 18:33N 35°19' E 139°39'0 0.0
2015-Jan-27 17:33N 35°19' E 139°39'0 0.0
2015-Jan-27 16:33N 35°19' E 139°39'0 0.0
2015-Jan-27 15:33N 35°19' E 139°39'0 0.0
2015-Jan-27 14:33N 35°19' E 139°39'0 0.0
2015-Jan-27 13:33N 35°19' E 139°39'0 0.0
2015-Jan-27 12:33N 35°19' E 139°39'0 0.0
2015-Jan-27 11:33N 35°19' E 139°39'0 0.0
2015-Jan-27 10:33N 35°19' E 139°39'0 0.0
2015-Jan-27 09:33N 35°19' E 139°39'0 0.0
2015-Jan-27 08:33N 35°19' E 139°39'0 0.0
2015-Jan-27 07:33N 35°19' E 139°39'1 0.8
2015-Jan-27 06:33N 35°19' E 139°40'9 8.6
2015-Jan-27 05:33N 35°12' E 139°47'9 8.8
2015-Jan-27 04:33N 35°04' E 139°44'9 9.0
2015-Jan-27 03:33N 34°55' E 139°42'1110.8
2015-Jan-27 02:33N 34°49' E 139°52'1413.7
2015-Jan-27 01:33N 34°56' E 140°06'2014.1
2015-Jan-27 00:05N 35°04' E 140°29'25 1.0
2015-Jan-26 00:04N 34°47' E 140°07'1017.3
2015-Jan-25 23:28N 34°40' E 139°57'1718.4
2015-Jan-25 22:33N 34°30' E 139°41'  
2015-Jan-18 23:07N 01°15' E 104°16'915.2
2015-Jan-18 22:33N 01°15' E 104°08'1413.9
2015-Jan-18 21:33N 01°12' E 103°54'  
Track history (hours):
 
Tides and Currents Weather Stations Pressure Air Temp Water Temp Dewpoint Dewpoint Depression Visibility Wind Speed Wind Dir Waves Ship Positions

Dream Angel

Last reported at 2015-Jan-28 14:33 UTC. Time now 2015-Feb-01 05:43 UTC.
Position N 34°47' E 139°34'.

Length 187 m; draft 7.8 m.

Type: Ship. MMSI: 371820000.

Date/timePositionNaut miles runAvg speedWind from/ knotsBaromVisibWave heightAir tempDewpointWater temp
2015-Jan-28 14:33N 34°47' E 139°34'1717.1
2015-Jan-28 13:34N 35°02' E 139°42'1313.2
2015-Jan-28 12:33N 35°15' E 139°46'1110.8
2015-Jan-28 11:34N 35°25' E 139°41'0 0.4
2015-Jan-28 10:33N 35°25' E 139°41'0 0.0
2015-Jan-28 09:33N 35°25' E 139°41'0 0.0
2015-Jan-28 08:33N 35°25' E 139°41'0 0.0
2015-Jan-28 07:33N 35°25' E 139°41'0 0.0
2015-Jan-28 06:33N 35°25' E 139°41'0 0.0
2015-Jan-28 05:33N 35°25' E 139°41'0 0.0
2015-Jan-28 04:33N 35°25' E 139°41'0 0.0
2015-Jan-28 03:33N 35°25' E 139°41'0 0.0
2015-Jan-28 02:33N 35°25' E 139°41'0 0.0
2015-Jan-28 01:33N 35°25' E 139°41'0 0.0
2015-Jan-28 00:33N 35°25' E 139°41'0 0.0
2015-Jan-27 23:33N 35°25' E 139°41'3 3.3
2015-Jan-27 22:33N 35°22' E 139°42'4 4.1
2015-Jan-27 21:33N 35°19' E 139°39'0 0.0
2015-Jan-27 20:30N 35°19' E 139°39'0 0.0
2015-Jan-27 19:33N 35°19' E 139°39'0 0.0
2015-Jan-27 18:33N 35°19' E 139°39'0 0.0
2015-Jan-27 17:33N 35°19' E 139°39'0 0.0
2015-Jan-27 16:33N 35°19' E 139°39'0 0.0
2015-Jan-27 15:33N 35°19' E 139°39'0 0.0
2015-Jan-27 14:33N 35°19' E 139°39'0 0.0
2015-Jan-27 13:33N 35°19' E 139°39'0 0.0
2015-Jan-27 12:33N 35°19' E 139°39'0 0.0
2015-Jan-27 11:33N 35°19' E 139°39'0 0.0
2015-Jan-27 10:33N 35°19' E 139°39'0 0.0
2015-Jan-27 09:33N 35°19' E 139°39'0 0.0
2015-Jan-27 08:33N 35°19' E 139°39'0 0.0
2015-Jan-27 07:33N 35°19' E 139°39'1 0.8
2015-Jan-27 06:33N 35°19' E 139°40'9 8.6
2015-Jan-27 05:33N 35°12' E 139°47'9 8.8
2015-Jan-27 04:33N 35°04' E 139°44'9 9.0
2015-Jan-27 03:33N 34°55' E 139°42'1110.8
2015-Jan-27 02:33N 34°49' E 139°52'1413.7
2015-Jan-27 01:33N 34°56' E 140°06'2014.1
2015-Jan-27 00:05N 35°04' E 140°29'25 1.0
2015-Jan-26 00:04N 34°47' E 140°07'1017.3
2015-Jan-25 23:28N 34°40' E 139°57'1718.4
2015-Jan-25 22:33N 34°30' E 139°41'  
2015-Jan-18 23:07N 01°15' E 104°16'915.2
2015-Jan-18 22:33N 01°15' E 104°08'1413.9
2015-Jan-18 21:33N 01°12' E 103°54'  

Dump ship's entire track history